Time;durP1;ratioP1;P1;durP2;ratioP2;P2;SDS_P1;SDS_P2;PMS_P1;PMS_P2;Temp;Humidity;BMP_temperature;BMP_pressure;BME280_temperature;BME280_humidity;BME280_pressure;Samples;Min_cycle;Max_cycle;Signal;HPM_P1;HPM_P2
2024/01/31 00:02:03;;;;;;;37.50;23.65;;;;;;;;;;5072386;28;20028;-78
2024/01/31 00:04:29;;;;;;;45.88;26.00;;;;;;;;;;5072485;28;20471;-79
2024/01/31 00:06:56;;;;;;;38.45;23.65;;;;;;;;;;5071048;28;20028;-79
2024/01/31 00:09:22;;;;;;;39.53;23.27;;;;;;;;;;5070915;28;20131;-78
2024/01/31 00:11:48;;;;;;;42.33;24.67;;;;;;;;;;5071236;28;20039;-80
2024/01/31 00:14:16;;;;;;;43.22;23.77;;;;;;;;;;5066789;28;20021;-77
2024/01/31 00:16:43;;;;;;;34.88;21.45;;;;;;;;;;5072757;28;20081;-79
2024/01/31 00:19:09;;;;;;;43.65;23.77;;;;;;;;;;5072319;28;20016;-78
2024/01/31 00:21:35;;;;;;;39.95;25.95;;;;;;;;;;5070878;28;20036;-78
2024/01/31 00:24:01;;;;;;;39.90;25.88;;;;;;;;;;5072061;28;20055;-79
2024/01/31 00:26:27;;;;;;;41.20;25.30;;;;;;;;;;5072101;28;20504;-77
2024/01/31 00:28:53;;;;;;;41.20;24.13;;;;;;;;;;5072334;28;20061;-79
2024/01/31 00:31:19;;;;;;;38.30;23.20;;;;;;;;;;5068890;28;20029;-79
2024/01/31 00:33:46;;;;;;;41.72;26.10;;;;;;;;;;5068295;28;20028;-78
2024/01/31 00:36:14;;;;;;;39.45;23.92;;;;;;;;;;5060824;28;20027;-79
2024/01/31 00:38:40;;;;;;;38.30;22.98;;;;;;;;;;5072086;28;20099;-79
2024/01/31 00:41:07;;;;;;;39.50;19.48;;;;;;;;;;5062907;28;20028;-78
2024/01/31 00:43:33;;;;;;;40.00;21.73;;;;;;;;;;5072898;28;20392;-79
2024/01/31 00:46:03;;;;;;;37.47;22.27;;;;;;;;;;5065809;28;20043;-78
2024/01/31 00:48:32;;;;;;;43.03;24.05;;;;;;;;;;5069389;28;20032;-78
2024/01/31 00:50:58;;;;;;;42.88;24.30;;;;;;;;;;5072475;28;20699;-77
2024/01/31 00:53:24;;;;;;;38.35;24.05;;;;;;;;;;5071309;28;20128;-78
2024/01/31 00:55:50;;;;;;;42.45;24.65;;;;;;;;;;5071904;28;20092;-78
2024/01/31 00:58:16;;;;;;;42.92;23.10;;;;;;;;;;5070738;28;20032;-79
2024/01/31 01:00:43;;;;;;;41.80;21.48;;;;;;;;;;5072045;28;20079;-78
2024/01/31 01:03:09;;;;;;;41.28;22.80;;;;;;;;;;5061925;28;20024;-78
2024/01/31 01:05:35;;;;;;;41.55;20.50;;;;;;;;;;5067041;28;20416;-78
2024/01/31 01:08:02;;;;;;;42.28;26.27;;;;;;;;;;5068598;28;20028;-78
2024/01/31 01:10:28;;;;;;;40.55;22.63;;;;;;;;;;5060220;28;20048;-78
2024/01/31 01:12:56;;;;;;;47.95;25.80;;;;;;;;;;5071166;28;20089;-78
2024/01/31 01:15:22;;;;;;;41.92;24.38;;;;;;;;;;5070542;28;20458;-79
2024/01/31 01:17:49;;;;;;;53.17;26.20;;;;;;;;;;5069493;28;20700;-79
2024/01/31 01:20:15;;;;;;;49.10;27.65;;;;;;;;;;5071427;28;20016;-78
2024/01/31 01:22:45;;;;;;;42.13;23.55;;;;;;;;;;5071624;28;20020;-78
2024/01/31 01:25:11;;;;;;;49.58;26.55;;;;;;;;;;5071637;28;20501;-79
2024/01/31 01:27:37;;;;;;;42.13;24.52;;;;;;;;;;5065826;28;20086;-79
2024/01/31 01:30:04;;;;;;;56.00;28.60;;;;;;;;;;5071530;28;20107;-77
2024/01/31 01:32:30;;;;;;;43.47;23.92;;;;;;;;;;5073035;28;20374;-77
2024/01/31 01:34:56;;;;;;;37.30;19.80;;;;;;;;;;5075103;28;20021;-77
2024/01/31 01:37:22;;;;;;;44.78;25.38;;;;;;;;;;5075165;28;20082;-76
2024/01/31 01:39:48;;;;;;;45.05;24.70;;;;;;;;;;5075074;28;20023;-76
2024/01/31 01:42:14;;;;;;;48.85;25.00;;;;;;;;;;5075049;28;20089;-79
2024/01/31 01:44:44;;;;;;;43.80;23.98;;;;;;;;;;5074916;28;20039;-78
2024/01/31 01:47:11;;;;;;;46.58;24.83;;;;;;;;;;5071563;28;20032;-78
2024/01/31 01:49:37;;;;;;;38.83;24.17;;;;;;;;;;5073399;28;20024;-77
2024/01/31 01:52:04;;;;;;;56.65;27.23;;;;;;;;;;5074711;28;20041;-77
2024/01/31 01:54:31;;;;;;;50.03;28.15;;;;;;;;;;5074707;28;20016;-77
2024/01/31 01:56:57;;;;;;;47.67;26.67;;;;;;;;;;5074836;28;20025;-78
2024/01/31 01:59:23;;;;;;;44.33;26.90;;;;;;;;;;5074504;28;20138;-78
2024/01/31 02:01:49;;;;;;;50.00;25.70;;;;;;;;;;5075120;28;20020;-76
2024/01/31 02:04:18;;;;;;;52.13;25.55;;;;;;;;;;5065171;28;20021;-78
2024/01/31 02:06:45;;;;;;;48.70;26.10;;;;;;;;;;5071666;28;20017;-77
2024/01/31 02:09:11;;;;;;;52.47;30.17;;;;;;;;;;5071945;28;20041;-76
2024/01/31 02:11:37;;;;;;;44.40;24.52;;;;;;;;;;5084393;28;20446;-77
2024/01/31 02:14:03;;;;;;;36.28;19.92;;;;;;;;;;5083452;28;20027;-77
2024/01/31 02:16:29;;;;;;;42.03;23.65;;;;;;;;;;5071757;28;20029;-78
2024/01/31 02:18:55;;;;;;;40.85;20.92;;;;;;;;;;5065981;28;20033;-77
2024/01/31 02:21:25;;;;;;;45.10;23.35;;;;;;;;;;5071987;28;20036;-77
2024/01/31 02:23:51;;;;;;;41.53;22.58;;;;;;;;;;5066588;28;20017;-77
2024/01/31 02:26:17;;;;;;;41.05;24.00;;;;;;;;;;5073519;28;20078;-77
2024/01/31 02:28:43;;;;;;;39.15;24.00;;;;;;;;;;5075564;28;20381;-77
2024/01/31 02:31:09;;;;;;;37.90;21.02;;;;;;;;;;5075428;28;20059;-76
2024/01/31 02:33:35;;;;;;;35.90;20.23;;;;;;;;;;5077041;28;20028;-76
2024/01/31 02:36:02;;;;;;;36.63;19.67;;;;;;;;;;5068587;28;20029;-77
2024/01/31 02:38:28;;;;;;;39.75;23.65;;;;;;;;;;5061896;28;20025;-79
2024/01/31 02:40:54;;;;;;;37.90;20.15;;;;;;;;;;5072539;28;20099;-76
2024/01/31 02:43:20;;;;;;;37.25;19.42;;;;;;;;;;5064384;28;20037;-76
2024/01/31 02:45:46;;;;;;;39.47;22.20;;;;;;;;;;5070068;28;20416;-77
2024/01/31 02:48:13;;;;;;;42.42;23.70;;;;;;;;;;5073294;28;20024;-76
2024/01/31 02:50:39;;;;;;;39.42;23.98;;;;;;;;;;5061282;28;20025;-76
2024/01/31 02:53:05;;;;;;;46.13;25.65;;;;;;;;;;5074657;28;20037;-77
2024/01/31 02:55:31;;;;;;;50.55;28.70;;;;;;;;;;5074385;28;20074;-78
2024/01/31 02:57:57;;;;;;;46.63;26.02;;;;;;;;;;5072811;28;20528;-77
2024/01/31 03:00:24;;;;;;;42.85;24.10;;;;;;;;;;5073442;28;20024;-78
2024/01/31 03:02:50;;;;;;;50.08;28.55;;;;;;;;;;5072101;28;20389;-76
2024/01/31 03:05:16;;;;;;;46.40;25.90;;;;;;;;;;5073990;28;20095;-77
2024/01/31 03:07:42;;;;;;;46.38;25.30;;;;;;;;;;5073089;28;20032;-79
2024/01/31 03:10:09;;;;;;;47.50;26.55;;;;;;;;;;5072013;28;20039;-76
2024/01/31 03:12:36;;;;;;;50.53;24.93;;;;;;;;;;5072372;28;20029;-78
2024/01/31 03:15:02;;;;;;;49.03;24.42;;;;;;;;;;5073366;28;20024;-77
2024/01/31 03:17:34;;;;;;;44.17;21.98;;;;;;;;;;5069804;28;20114;-77
2024/01/31 03:20:01;;;;;;;51.67;29.65;;;;;;;;;;5071448;28;20023;-76
2024/01/31 03:22:34;;;;;;;58.75;29.05;;;;;;;;;;5071892;28;20032;-78
2024/01/31 03:25:00;;;;;;;49.72;27.73;;;;;;;;;;5073103;28;20504;-77
2024/01/31 03:27:26;;;;;;;50.38;25.70;;;;;;;;;;5072996;28;20027;-77
2024/01/31 03:29:52;;;;;;;46.08;27.00;;;;;;;;;;5071619;28;20028;-77
2024/01/31 03:32:18;;;;;;;48.47;27.88;;;;;;;;;;5072675;28;20035;-77
2024/01/31 03:34:44;;;;;;;52.05;28.48;;;;;;;;;;5072849;28;20058;-76
2024/01/31 03:37:10;;;;;;;47.67;25.40;;;;;;;;;;5069185;28;20067;-77
2024/01/31 03:39:36;;;;;;;53.03;29.95;;;;;;;;;;5072682;28;20481;-77
2024/01/31 03:42:03;;;;;;;58.33;23.80;;;;;;;;;;5072438;28;20028;-76
2024/01/31 03:44:29;;;;;;;49.55;29.38;;;;;;;;;;5072256;28;20085;-76
2024/01/31 03:46:55;;;;;;;46.95;26.10;;;;;;;;;;5073563;28;20107;-77
2024/01/31 03:49:21;;;;;;;43.95;25.92;;;;;;;;;;5061987;28;20023;-76
2024/01/31 03:51:48;;;;;;;49.70;24.63;;;;;;;;;;5072633;28;20044;-79
2024/01/31 03:54:14;;;;;;;52.20;26.47;;;;;;;;;;5073299;28;20475;-77
2024/01/31 03:56:40;;;;;;;54.78;28.02;;;;;;;;;;5072513;28;20025;-77
2024/01/31 03:59:08;;;;;;;40.85;21.08;;;;;;;;;;5076833;28;20028;-78
2024/01/31 04:01:53;;;;;;;40.10;21.92;;;;;;;;;;5075108;28;20037;-78
2024/01/31 04:04:19;;;;;;;53.83;27.02;;;;;;;;;;5077024;28;20373;-76
2024/01/31 04:06:45;;;;;;;52.35;26.77;;;;;;;;;;5072547;28;20043;-78
2024/01/31 04:09:11;;;;;;;48.78;27.25;;;;;;;;;;5072367;28;20044;-78
2024/01/31 04:11:37;;;;;;;46.67;26.67;;;;;;;;;;5072149;28;20028;-79
2024/01/31 04:14:04;;;;;;;47.83;28.15;;;;;;;;;;5069607;28;20021;-79
2024/01/31 04:16:30;;;;;;;49.53;26.10;;;;;;;;;;5072259;28;20496;-79
2024/01/31 04:18:56;;;;;;;41.15;23.95;;;;;;;;;;5061814;28;20021;-80
2024/01/31 04:21:22;;;;;;;47.97;24.40;;;;;;;;;;5072139;28;20021;-80
2024/01/31 04:23:49;;;;;;;43.88;21.52;;;;;;;;;;5071903;28;20097;-80
2024/01/31 04:26:15;;;;;;;43.95;23.52;;;;;;;;;;5072252;28;20492;-80
2024/01/31 04:28:41;;;;;;;46.90;25.20;;;;;;;;;;5072263;28;20369;-79
2024/01/31 04:31:14;;;;;;;44.65;22.77;;;;;;;;;;5072137;28;20016;-82
2024/01/31 04:33:44;;;;;;;54.90;28.83;;;;;;;;;;5074093;28;20122;-79
2024/01/31 04:36:10;;;;;;;49.65;27.63;;;;;;;;;;5076509;28;20028;-80
2024/01/31 04:38:36;;;;;;;53.65;26.30;;;;;;;;;;5076160;28;20031;-80
2024/01/31 04:41:03;;;;;;;50.40;26.13;;;;;;;;;;5072161;28;20025;-81
2024/01/31 04:43:29;;;;;;;51.42;24.15;;;;;;;;;;5070613;28;20029;-80
2024/01/31 04:45:55;;;;;;;49.00;23.13;;;;;;;;;;5071843;28;20477;-79
2024/01/31 04:48:21;;;;;;;55.03;26.88;;;;;;;;;;5071991;28;20074;-81
2024/01/31 04:50:47;;;;;;;55.67;28.15;;;;;;;;;;5071876;28;20025;-78
2024/01/31 04:53:28;;;;;;;48.45;26.02;;;;;;;;;;5072541;28;20025;-80
2024/01/31 04:55:56;;;;;;;43.28;22.50;;;;;;;;;;5071651;28;20017;-79
2024/01/31 04:58:22;;;;;;;42.13;20.60;;;;;;;;;;5070962;28;20092;-79
2024/01/31 05:00:48;;;;;;;42.38;23.33;;;;;;;;;;5070525;28;20094;-79
2024/01/31 05:03:14;;;;;;;41.75;23.40;;;;;;;;;;5071402;28;20021;-77
2024/01/31 05:05:40;;;;;;;41.70;18.65;;;;;;;;;;5071630;28;20020;-79
2024/01/31 05:08:07;;;;;;;45.85;23.05;;;;;;;;;;5071325;28;20040;-78
2024/01/31 05:10:34;;;;;;;44.97;23.02;;;;;;;;;;5071066;28;20382;-78
2024/01/31 05:13:01;;;;;;;46.03;26.00;;;;;;;;;;5068127;28;20147;-80
2024/01/31 05:15:28;;;;;;;39.77;20.53;;;;;;;;;;5074161;28;20174;-79
2024/01/31 05:17:54;;;;;;;45.20;22.63;;;;;;;;;;5074076;28;20261;-78
2024/01/31 05:20:20;;;;;;;41.75;22.52;;;;;;;;;;5075421;28;20340;-78
2024/01/31 05:22:46;;;;;;;33.65;21.45;;;;;;;;;;5075407;28;20016;-79
2024/01/31 05:25:12;;;;;;;29.73;16.70;;;;;;;;;;5075415;28;20186;-80
2024/01/31 05:27:38;;;;;;;38.17;21.35;;;;;;;;;;5080888;28;20104;-78
2024/01/31 05:30:05;;;;;;;37.08;19.25;;;;;;;;;;5079188;28;20107;-79
2024/01/31 05:32:31;;;;;;;27.30;15.00;;;;;;;;;;5075671;28;20036;-77
2024/01/31 05:34:57;;;;;;;36.15;18.13;;;;;;;;;;5071296;28;20533;-78
2024/01/31 05:37:23;;;;;;;29.13;16.60;;;;;;;;;;5060336;28;20134;-77
2024/01/31 05:39:50;;;;;;;32.90;16.27;;;;;;;;;;5068007;28;20107;-78
2024/01/31 05:42:16;;;;;;;32.13;19.35;;;;;;;;;;5065775;28;20482;-79
2024/01/31 05:44:42;;;;;;;32.40;15.90;;;;;;;;;;5071004;28;20060;-79
2024/01/31 05:47:08;;;;;;;30.98;18.20;;;;;;;;;;5064660;28;20533;-79
2024/01/31 05:49:34;;;;;;;29.58;15.55;;;;;;;;;;5058528;28;20009;-79
2024/01/31 05:52:00;;;;;;;30.15;14.80;;;;;;;;;;5068169;28;20387;-79
2024/01/31 05:54:26;;;;;;;29.13;17.27;;;;;;;;;;5068185;28;20024;-79
2024/01/31 05:56:53;;;;;;;26.65;15.15;;;;;;;;;;5074739;28;20470;-76
2024/01/31 05:59:19;;;;;;;37.72;17.67;;;;;;;;;;5075244;28;20016;-78
2024/01/31 06:01:45;;;;;;;30.77;14.35;;;;;;;;;;5074674;28;20175;-79
2024/01/31 06:04:11;;;;;;;22.92;10.98;;;;;;;;;;5071265;28;20150;-80
2024/01/31 06:06:37;;;;;;;31.77;16.30;;;;;;;;;;5073498;28;20028;-78
2024/01/31 06:09:05;;;;;;;34.75;17.77;;;;;;;;;;5073340;28;20044;-81
2024/01/31 06:11:32;;;;;;;29.60;15.05;;;;;;;;;;5071993;28;20037;-81
2024/01/31 06:13:58;;;;;;;31.80;16.58;;;;;;;;;;5073028;28;20059;-81
2024/01/31 06:16:24;;;;;;;31.65;15.55;;;;;;;;;;5074334;28;20032;-81
2024/01/31 06:18:50;;;;;;;31.50;15.85;;;;;;;;;;5074477;28;20042;-82
2024/01/31 06:21:16;;;;;;;27.80;15.52;;;;;;;;;;5074541;28;20040;-80
2024/01/31 06:23:42;;;;;;;27.42;13.73;;;;;;;;;;5073402;28;20477;-81
2024/01/31 06:26:08;;;;;;;32.22;13.80;;;;;;;;;;5073499;28;20029;-82
2024/01/31 06:28:38;;;;;;;29.80;13.98;;;;;;;;;;5074862;28;20013;-82
2024/01/31 06:31:13;;;;;;;40.35;16.58;;;;;;;;;;5075010;28;20039;-81
2024/01/31 06:33:43;;;;;;;35.97;18.35;;;;;;;;;;5072598;28;20033;-81
2024/01/31 06:36:09;;;;;;;32.35;18.15;;;;;;;;;;5074269;28;20101;-82
2024/01/31 06:38:36;;;;;;;44.67;18.50;;;;;;;;;;5074842;28;20025;-79
2024/01/31 06:41:02;;;;;;;34.35;19.15;;;;;;;;;;5075326;28;20112;-82
2024/01/31 06:43:31;;;;;;;33.55;18.58;;;;;;;;;;5074217;28;20103;-83
2024/01/31 06:45:57;;;;;;;38.33;17.38;;;;;;;;;;5070646;28;20029;-82
2024/01/31 06:48:24;;;;;;;26.65;14.25;;;;;;;;;;5074630;28;20021;-81
2024/01/31 06:50:50;;;;;;;21.10;10.77;;;;;;;;;;5088229;28;20110;-80
2024/01/31 06:53:17;;;;;;;29.10;14.73;;;;;;;;;;5074184;28;20036;-82
2024/01/31 06:55:43;;;;;;;30.98;16.40;;;;;;;;;;5074157;28;20029;-81
2024/01/31 06:58:09;;;;;;;28.15;16.02;;;;;;;;;;5074033;28;20658;-80
2024/01/31 07:00:36;;;;;;;32.08;16.13;;;;;;;;;;5074514;28;20078;-79
2024/01/31 07:03:03;;;;;;;23.52;13.18;;;;;;;;;;5073843;28;20029;-80
2024/01/31 07:05:29;;;;;;;34.47;17.73;;;;;;;;;;5073991;28;20021;-82
2024/01/31 07:07:55;;;;;;;31.70;16.83;;;;;;;;;;5076581;28;20044;-81
2024/01/31 07:10:21;;;;;;;30.40;15.10;;;;;;;;;;5078186;28;20016;-83
2024/01/31 07:12:47;;;;;;;28.08;15.00;;;;;;;;;;5073496;28;20037;-82
2024/01/31 07:15:14;;;;;;;29.05;14.90;;;;;;;;;;5073791;28;20017;-81
2024/01/31 07:17:40;;;;;;;23.70;10.60;;;;;;;;;;5073725;28;20107;-80
2024/01/31 07:20:08;;;;;;;20.33;10.45;;;;;;;;;;5076074;28;20077;-81
2024/01/31 07:22:34;;;;;;;20.40;12.38;;;;;;;;;;5074348;28;20460;-81
2024/01/31 07:25:00;;;;;;;26.02;15.45;;;;;;;;;;5073362;28;20020;-82
2024/01/31 07:27:26;;;;;;;19.95;9.85;;;;;;;;;;5073216;28;20028;-83
2024/01/31 07:29:52;;;;;;;20.10;12.20;;;;;;;;;;5072785;28;20043;-82
2024/01/31 07:32:19;;;;;;;22.58;11.88;;;;;;;;;;5073818;28;20037;-81
2024/01/31 07:34:45;;;;;;;21.23;13.02;;;;;;;;;;5077428;28;20016;-80
2024/01/31 07:37:11;;;;;;;21.63;11.73;;;;;;;;;;5073128;28;20078;-80
2024/01/31 07:39:37;;;;;;;22.35;12.48;;;;;;;;;;5073643;28;20024;-82
2024/01/31 07:42:03;;;;;;;21.17;12.15;;;;;;;;;;5071688;28;20060;-81
2024/01/31 07:44:29;;;;;;;22.63;10.80;;;;;;;;;;5072328;28;20013;-79
2024/01/31 07:46:55;;;;;;;20.60;12.70;;;;;;;;;;5071642;28;20039;-82
2024/01/31 07:49:21;;;;;;;21.17;12.75;;;;;;;;;;5072696;28;20044;-81
2024/01/31 07:51:47;;;;;;;24.70;13.13;;;;;;;;;;5071927;28;20036;-82
2024/01/31 07:54:16;;;;;;;27.50;15.18;;;;;;;;;;5072636;28;20021;-82
2024/01/31 07:56:42;;;;;;;24.88;14.48;;;;;;;;;;5072515;28;20095;-81
2024/01/31 07:59:08;;;;;;;22.50;13.40;;;;;;;;;;5087414;28;20020;-80
2024/01/31 08:01:34;;;;;;;25.50;15.18;;;;;;;;;;5063180;28;20028;-81
2024/01/31 08:04:00;;;;;;;22.10;13.38;;;;;;;;;;5074031;28;20098;-82
2024/01/31 08:06:26;;;;;;;25.48;14.40;;;;;;;;;;5071841;28;20024;-81
2024/01/31 08:08:52;;;;;;;18.77;11.15;;;;;;;;;;5072491;28;20394;-83
2024/01/31 08:11:18;;;;;;;22.17;11.73;;;;;;;;;;5070908;28;20025;-81
2024/01/31 08:13:45;;;;;;;22.95;12.32;;;;;;;;;;5073120;28;20028;-80
2024/01/31 08:16:12;;;;;;;28.63;15.45;;;;;;;;;;5072414;28;20099;-81
2024/01/31 08:18:38;;;;;;;20.13;10.00;;;;;;;;;;5086835;28;20024;-81
2024/01/31 08:21:04;;;;;;;26.15;14.68;;;;;;;;;;5071545;28;20412;-80
2024/01/31 08:23:30;;;;;;;24.05;15.43;;;;;;;;;;5071391;28;20031;-81
2024/01/31 08:25:56;;;;;;;25.90;16.50;;;;;;;;;;5073742;28;20469;-81
2024/01/31 08:28:22;;;;;;;30.63;17.83;;;;;;;;;;5075858;28;20115;-81
2024/01/31 08:30:48;;;;;;;28.55;17.73;;;;;;;;;;5072826;28;20023;-82
2024/01/31 08:33:14;;;;;;;29.75;16.88;;;;;;;;;;5072242;28;20115;-82
2024/01/31 08:35:41;;;;;;;33.97;17.65;;;;;;;;;;5073222;28;20040;-83
2024/01/31 08:38:07;;;;;;;31.50;15.77;;;;;;;;;;5073414;28;20028;-81
2024/01/31 08:40:33;;;;;;;29.95;16.85;;;;;;;;;;5072937;28;20025;-83
2024/01/31 08:42:59;;;;;;;30.23;15.90;;;;;;;;;;5072860;28;20422;-81
2024/01/31 08:45:26;;;;;;;29.80;16.55;;;;;;;;;;5073117;28;20025;-81
2024/01/31 08:47:52;;;;;;;27.75;17.58;;;;;;;;;;5087361;28;20036;-82
2024/01/31 08:50:18;;;;;;;26.55;16.95;;;;;;;;;;5073496;28;20044;-80
2024/01/31 08:52:44;;;;;;;27.40;14.73;;;;;;;;;;5086744;28;20028;-80
2024/01/31 08:55:13;;;;;;;24.42;14.73;;;;;;;;;;5072881;28;20047;-81
2024/01/31 08:57:39;;;;;;;21.52;12.18;;;;;;;;;;5073155;28;20429;-80
2024/01/31 09:00:15;;;;;;;26.70;15.35;;;;;;;;;;5073715;28;20059;-81
2024/01/31 09:02:41;;;;;;;27.45;14.65;;;;;;;;;;5073185;28;20056;-82
2024/01/31 09:05:10;;;;;;;30.42;16.92;;;;;;;;;;5073622;28;20025;-82
2024/01/31 09:07:42;;;;;;;25.75;15.98;;;;;;;;;;5074715;28;20045;-82
2024/01/31 09:10:09;;;;;;;24.88;14.23;;;;;;;;;;5072918;28;20470;-81
2024/01/31 09:12:35;;;;;;;19.92;13.35;;;;;;;;;;5073743;28;20036;-82
2024/01/31 09:15:01;;;;;;;26.08;15.65;;;;;;;;;;5074156;28;20017;-82
2024/01/31 09:17:27;;;;;;;21.73;15.20;;;;;;;;;;5079790;28;20078;-81
2024/01/31 09:19:53;;;;;;;22.17;13.90;;;;;;;;;;5075002;28;20549;-81
2024/01/31 09:22:19;;;;;;;25.92;16.02;;;;;;;;;;5075218;28;20021;-79
2024/01/31 09:24:45;;;;;;;21.55;12.50;;;;;;;;;;5073350;28;20103;-82
2024/01/31 09:27:11;;;;;;;25.27;13.52;;;;;;;;;;5073138;28;20040;-80
2024/01/31 09:29:37;;;;;;;27.27;15.40;;;;;;;;;;5072465;28;20056;-81
2024/01/31 09:32:04;;;;;;;26.95;17.17;;;;;;;;;;5071392;28;20032;-82
2024/01/31 09:34:30;;;;;;;22.55;14.27;;;;;;;;;;5072224;28;20097;-81
2024/01/31 09:36:56;;;;;;;30.83;17.70;;;;;;;;;;5072129;28;20051;-82
2024/01/31 09:39:25;;;;;;;25.27;15.88;;;;;;;;;;5072024;28;20438;-84
2024/01/31 09:41:52;;;;;;;25.20;16.13;;;;;;;;;;5072475;28;20029;-82
2024/01/31 09:44:18;;;;;;;19.05;11.43;;;;;;;;;;5072546;28;20460;-82
2024/01/31 09:46:45;;;;;;;27.35;16.55;;;;;;;;;;5072273;28;20042;-82
2024/01/31 09:49:11;;;;;;;20.27;12.40;;;;;;;;;;5071260;28;20036;-81
2024/01/31 09:51:37;;;;;;;20.30;11.75;;;;;;;;;;5073129;28;20035;-81
2024/01/31 09:54:06;;;;;;;24.63;14.15;;;;;;;;;;5074793;28;20016;-81
2024/01/31 09:56:36;;;;;;;22.20;11.77;;;;;;;;;;5075115;28;20338;-81
2024/01/31 09:59:02;;;;;;;21.17;11.57;;;;;;;;;;5075954;28;20028;-81
2024/01/31 10:01:29;;;;;;;21.60;12.32;;;;;;;;;;5076313;28;20094;-80
2024/01/31 10:03:57;;;;;;;20.90;12.77;;;;;;;;;;5076007;28;20025;-82
2024/01/31 10:06:29;;;;;;;17.65;12.45;;;;;;;;;;5074605;28;20024;-80
2024/01/31 10:09:03;;;;;;;17.65;12.57;;;;;;;;;;5077484;28;20048;-80
2024/01/31 10:11:32;;;;;;;19.60;13.32;;;;;;;;;;5076339;28;20035;-81
2024/01/31 10:13:58;;;;;;;19.95;14.27;;;;;;;;;;5077037;28;20353;-81
2024/01/31 10:16:25;;;;;;;19.65;13.95;;;;;;;;;;5075806;28;20035;-83
2024/01/31 10:18:51;;;;;;;18.65;11.63;;;;;;;;;;5075998;28;20035;-82
2024/01/31 10:21:21;;;;;;;21.37;14.70;;;;;;;;;;5074408;28;20021;-81
2024/01/31 10:24:02;;;;;;;17.10;12.63;;;;;;;;;;5076451;28;20048;-82
2024/01/31 10:26:28;;;;;;;21.45;13.32;;;;;;;;;;5073959;28;20033;-82
2024/01/31 10:28:56;;;;;;;18.70;11.77;;;;;;;;;;5075911;28;20023;-81
2024/01/31 10:31:22;;;;;;;19.58;14.13;;;;;;;;;;5076388;28;20112;-82
2024/01/31 10:33:49;;;;;;;20.60;13.45;;;;;;;;;;5073887;28;20056;-80
2024/01/31 10:36:15;;;;;;;;;;;;;;;;;;5076074;28;20021;-80
2024/01/31 10:38:43;;;;;;;18.48;13.13;;;;;;;;;;5068342;28;19912;-81
2024/01/31 10:41:12;;;;;;;19.42;12.90;;;;;;;;;;5075097;28;20021;-81
2024/01/31 10:43:41;;;;;;;20.10;12.82;;;;;;;;;;5075707;28;20020;-81
2024/01/31 10:46:07;;;;;;;15.27;11.15;;;;;;;;;;5075942;28;20044;-81
2024/01/31 10:48:33;;;;;;;19.45;13.90;;;;;;;;;;5075749;28;20020;-80
2024/01/31 10:51:00;;;;;;;18.65;12.63;;;;;;;;;;5074344;28;20029;-80
2024/01/31 10:53:28;;;;;;;22.67;15.75;;;;;;;;;;5076187;28;20090;-81
2024/01/31 10:55:55;;;;;;;17.50;12.40;;;;;;;;;;5075045;28;20055;-83
2024/01/31 10:58:22;;;;;;;16.83;11.67;;;;;;;;;;5075218;28;20076;-82
2024/01/31 11:00:48;;;;;;;21.80;12.20;;;;;;;;;;5076474;28;20299;-81
2024/01/31 11:03:15;;;;;;;17.52;12.50;;;;;;;;;;5083420;28;20025;-80
2024/01/31 11:05:42;;;;;;;21.65;13.80;;;;;;;;;;5076228;28;20016;-81
2024/01/31 11:08:18;;;;;;;15.82;12.35;;;;;;;;;;5076082;28;20049;-82
2024/01/31 11:10:44;;;;;;;18.50;12.55;;;;;;;;;;5073422;28;20120;-81
2024/01/31 11:13:10;;;;;;;19.00;12.68;;;;;;;;;;5074290;28;20039;-81
2024/01/31 11:15:36;;;;;;;19.35;14.23;;;;;;;;;;5074156;28;20035;-80
2024/01/31 11:18:12;;;;;;;18.70;13.18;;;;;;;;;;5074397;28;20034;-83
2024/01/31 11:20:50;;;;;;;19.70;12.52;;;;;;;;;;5074225;28;20507;-81
2024/01/31 11:23:16;;;;;;;20.85;12.75;;;;;;;;;;5074315;28;20442;-80
2024/01/31 11:25:43;;;;;;;21.75;14.05;;;;;;;;;;5074403;28;20484;-83
2024/01/31 11:28:13;;;;;;;22.05;15.32;;;;;;;;;;5073871;28;20031;-82
2024/01/31 11:30:39;;;;;;;22.70;15.07;;;;;;;;;;5074517;28;20354;-81
2024/01/31 11:33:06;;;;;;;19.77;13.00;;;;;;;;;;5073107;28;20036;-81
2024/01/31 11:35:32;;;;;;;18.23;13.23;;;;;;;;;;5075270;28;20373;-84
2024/01/31 11:37:59;;;;;;;21.45;13.48;;;;;;;;;;5069383;28;20025;-82
2024/01/31 11:40:26;;;;;;;18.77;13.75;;;;;;;;;;5074336;28;20496;-82
2024/01/31 11:42:53;;;;;;;19.73;13.45;;;;;;;;;;5074506;28;20060;-82
2024/01/31 11:45:19;;;;;;;20.10;13.63;;;;;;;;;;5074595;28;20042;-81
2024/01/31 11:47:46;;;;;;;22.77;11.98;;;;;;;;;;5072912;28;20025;-80
2024/01/31 11:50:12;;;;;;;23.13;14.63;;;;;;;;;;5073162;28;20032;-81
2024/01/31 11:52:38;;;;;;;21.10;14.15;;;;;;;;;;5074068;28;20105;-81
2024/01/31 11:55:06;;;;;;;18.40;13.30;;;;;;;;;;5072895;28;20389;-81
2024/01/31 11:57:33;;;;;;;24.00;17.02;;;;;;;;;;5073756;28;20034;-82
2024/01/31 12:00:00;;;;;;;20.58;15.38;;;;;;;;;;5074375;28;20165;-82
2024/01/31 12:02:27;;;;;;;21.88;12.85;;;;;;;;;;5072252;28;20032;-81
2024/01/31 12:04:54;;;;;;;22.63;13.98;;;;;;;;;;5073236;28;20450;-81
2024/01/31 12:07:20;;;;;;;;;;;;;;;;;;5074075;28;20385;-81
2024/01/31 12:09:47;;;;;;;20.10;14.38;;;;;;;;;;5073391;28;20003;-82
2024/01/31 12:12:14;;;;;;;21.25;13.55;;;;;;;;;;5073562;28;20494;-81
2024/01/31 12:14:40;;;;;;;22.58;13.50;;;;;;;;;;5073302;28;20020;-81
2024/01/31 12:17:25;;;;;;;23.40;12.63;;;;;;;;;;5073908;28;20025;-83
2024/01/31 12:20:11;;;;;;;17.20;12.25;;;;;;;;;;5072347;28;20062;-83
2024/01/31 12:22:40;;;;;;;19.38;14.38;;;;;;;;;;5073993;28;20066;-82
2024/01/31 12:25:07;;;;;;;18.27;12.50;;;;;;;;;;5073863;28;20107;-81
2024/01/31 12:27:34;;;;;;;21.83;13.82;;;;;;;;;;5074476;28;20074;-81
2024/01/31 12:30:00;;;;;;;23.83;15.05;;;;;;;;;;5073120;28;20028;-81
2024/01/31 12:32:26;;;;;;;21.70;15.63;;;;;;;;;;5074965;28;20186;-82
2024/01/31 12:34:53;;;;;;;20.33;12.95;;;;;;;;;;5074115;28;20087;-81
2024/01/31 12:37:19;;;;;;;18.17;12.23;;;;;;;;;;5071239;28;20025;-82
2024/01/31 12:39:45;;;;;;;17.55;13.35;;;;;;;;;;5074109;28;20023;-82
2024/01/31 12:42:11;;;;;;;18.30;11.63;;;;;;;;;;5072950;28;20024;-81
2024/01/31 12:44:38;;;;;;;23.23;13.52;;;;;;;;;;5073750;28;20024;-82
2024/01/31 12:47:08;;;;;;;19.35;13.35;;;;;;;;;;5072585;28;20028;-82
2024/01/31 12:49:34;;;;;;;18.98;13.15;;;;;;;;;;5073152;28;20013;-81
2024/01/31 12:52:01;;;;;;;16.88;12.32;;;;;;;;;;5074165;28;20039;-81
2024/01/31 12:54:27;;;;;;;18.07;13.80;;;;;;;;;;5072134;28;20491;-82
2024/01/31 12:56:53;;;;;;;21.92;15.15;;;;;;;;;;5073581;28;20116;-84
2024/01/31 12:59:20;;;;;;;21.30;13.93;;;;;;;;;;5073269;28;20072;-81
2024/01/31 13:01:46;;;;;;;27.27;13.40;;;;;;;;;;5073129;28;20020;-81
2024/01/31 13:04:12;;;;;;;19.25;14.15;;;;;;;;;;5072144;28;20043;-82
2024/01/31 13:06:39;;;;;;;19.17;12.55;;;;;;;;;;5072926;28;20017;-82
2024/01/31 13:09:05;;;;;;;15.90;11.47;;;;;;;;;;5085391;28;20123;-81
2024/01/31 13:11:31;;;;;;;25.27;13.07;;;;;;;;;;5089121;28;20489;-81
2024/01/31 13:13:57;;;;;;;19.88;12.57;;;;;;;;;;5073920;28;20033;-81
2024/01/31 13:16:23;;;;;;;19.27;13.13;;;;;;;;;;5072787;28;20021;-81
2024/01/31 13:18:49;;;;;;;20.35;13.88;;;;;;;;;;5073092;28;20025;-80
2024/01/31 13:21:16;;;;;;;19.95;14.65;;;;;;;;;;5072627;28;20021;-82
2024/01/31 13:23:42;;;;;;;23.15;15.65;;;;;;;;;;5072834;28;20370;-80
2024/01/31 13:26:08;;;;;;;21.38;14.23;;;;;;;;;;5072736;28;20025;-82
2024/01/31 13:28:34;;;;;;;22.85;16.20;;;;;;;;;;5073931;28;20031;-80
2024/01/31 13:31:00;;;;;;;20.85;15.20;;;;;;;;;;5075101;28;20017;-80
2024/01/31 13:33:27;;;;;;;22.70;15.73;;;;;;;;;;5076937;28;20032;-82
2024/01/31 13:35:53;;;;;;;30.60;17.02;;;;;;;;;;5061469;28;20032;-81
2024/01/31 13:38:19;;;;;;;25.52;16.08;;;;;;;;;;5076562;28;20017;-81
2024/01/31 13:40:45;;;;;;;23.38;16.23;;;;;;;;;;5076166;28;20036;-81
2024/01/31 13:43:11;;;;;;;22.70;13.93;;;;;;;;;;5076677;28;20059;-82
2024/01/31 13:45:37;;;;;;;24.95;16.30;;;;;;;;;;5075187;28;20050;-81
2024/01/31 13:48:03;;;;;;;25.02;17.30;;;;;;;;;;5076535;28;20028;-80
2024/01/31 13:50:30;;;;;;;25.70;18.00;;;;;;;;;;5076030;28;20104;-80
2024/01/31 13:52:56;;;;;;;25.92;18.40;;;;;;;;;;5076251;28;20040;-81
2024/01/31 13:55:22;;;;;;;28.95;17.20;;;;;;;;;;5075487;28;20024;-81
2024/01/31 13:57:48;;;;;;;28.92;17.90;;;;;;;;;;5082390;28;20091;-81
2024/01/31 14:00:14;;;;;;;32.65;18.40;;;;;;;;;;5088645;28;20103;-81
2024/01/31 14:02:40;;;;;;;29.30;19.65;;;;;;;;;;5075587;28;20024;-80
2024/01/31 14:05:07;;;;;;;22.48;16.83;;;;;;;;;;5076400;28;20025;-80
2024/01/31 14:07:33;;;;;;;28.95;18.55;;;;;;;;;;5075956;28;20040;-81
2024/01/31 14:09:59;;;;;;;29.65;19.17;;;;;;;;;;5075883;28;20033;-80
2024/01/31 14:12:25;;;;;;;25.40;16.20;;;;;;;;;;5074308;28;20127;-80
2024/01/31 14:14:51;;;;;;;30.73;19.40;;;;;;;;;;5076233;28;20135;-81
2024/01/31 14:17:17;;;;;;;30.17;19.15;;;;;;;;;;5076126;28;20016;-80